Sherman, Texas
Current Conditions -  °F | °C
As of 10:55 AM on Saturday 22 Nov 2014 (Local Time) from KGYI Reporting Station
Overcast Overcast  
Wind Chill: 61°   Ceiling: 1000
Heat Index: 61°   Visibility: 10mi
Dew Point: 60°   Wind: 13mph
Humidity: 96%   Direction: 150°SSE
Pressure: 30.03"   Gusts: NA
Location:  33.64°N, 96.61°W
Report Text: KGYI 221655Z AUTO 15011KT 10SM BKN010 OVC016 16/15 A3003 RMK AO2 LTG DSNT ALQS P0001 T01600153
Loading
Personal Weather Stations






























Interactive Weather Map New forecast layout! Learn more

10-Day Weather Forecast

Advertisements
Track Severe Weather on mobile